Time;durP1;ratioP1;P1;durP2;ratioP2;P2;SDS_P1;SDS_P2;PMS_P1;PMS_P2;Temp;Humidity;BMP_temperature;BMP_pressure;BME280_temperature;BME280_humidity;BME280_pressure;Samples;Min_cycle;Max_cycle;Signal;HPM_P1;HPM_P2
2023/12/17 00:01:50;;;;;;;4.85;3.72;;;;;;;;;;4975271;28;100184;-74
2023/12/17 00:04:17;;;;;;;10.60;4.80;;;;;;;;;;4975410;28;99917;-73
2023/12/17 00:06:43;;;;;;;18.27;5.00;;;;;;;;;;4975860;28;98220;-73
2023/12/17 00:09:10;;;;;;;4.90;4.03;;;;;;;;;;4975708;28;99748;-74
2023/12/17 00:11:40;;;;;;;15.30;4.75;;;;;;;;;;4974688;28;100095;-73
2023/12/17 00:14:07;;;;;;;11.75;3.88;;;;;;;;;;4956505;28;98182;-73
2023/12/17 00:16:34;;;;;;;12.18;4.88;;;;;;;;;;4956393;28;99517;-73
2023/12/17 00:19:00;;;;;;;4.97;4.13;;;;;;;;;;4956059;28;99954;-72
2023/12/17 00:21:27;;;;;;;5.82;3.63;;;;;;;;;;4974601;28;98153;-72
2023/12/17 00:23:53;;;;;;;8.23;6.03;;;;;;;;;;4975928;28;98344;-74
2023/12/17 00:26:20;;;;;;;5.45;4.20;;;;;;;;;;4968685;28;98284;-73
2023/12/17 00:28:46;;;;;;;8.20;4.18;;;;;;;;;;4957996;28;99453;-74
2023/12/17 00:31:13;;;;;;;8.60;4.30;;;;;;;;;;4958853;28;98915;-73
2023/12/17 00:33:39;;;;;;;10.82;4.53;;;;;;;;;;4972056;28;99216;-74
2023/12/17 00:36:06;;;;;;;6.93;4.10;;;;;;;;;;4971657;28;99629;-73
2023/12/17 00:38:33;;;;;;;6.95;4.35;;;;;;;;;;4972751;28;100037;-74
2023/12/17 00:40:59;;;;;;;7.05;4.22;;;;;;;;;;4969762;28;99193;-75
2023/12/17 00:43:25;;;;;;;8.20;4.43;;;;;;;;;;4976142;28;99555;-73
2023/12/17 00:45:52;;;;;;;5.97;3.88;;;;;;;;;;4968562;28;99343;-74
2023/12/17 00:48:18;;;;;;;6.72;4.05;;;;;;;;;;4970180;28;99812;-73
2023/12/17 00:50:45;;;;;;;6.80;3.83;;;;;;;;;;4968341;28;100120;-74
2023/12/17 00:53:11;;;;;;;6.07;3.60;;;;;;;;;;4971625;28;99642;-74
2023/12/17 00:55:38;;;;;;;5.03;4.03;;;;;;;;;;4969528;28;99904;-73
2023/12/17 00:58:04;;;;;;;4.18;3.40;;;;;;;;;;4966612;28;100101;-73
2023/12/17 01:00:30;;;;;;;14.05;4.30;;;;;;;;;;4966773;28;98996;-72
2023/12/17 01:02:57;;;;;;;9.48;4.07;;;;;;;;;;4972867;28;99501;-73
2023/12/17 01:05:23;;;;;;;12.45;4.68;;;;;;;;;;4976697;28;99553;-73
2023/12/17 01:07:50;;;;;;;4.75;4.20;;;;;;;;;;4971564;28;99415;-73
2023/12/17 01:10:16;;;;;;;10.13;4.70;;;;;;;;;;4966129;28;100104;-73
2023/12/17 01:12:43;;;;;;;9.40;4.18;;;;;;;;;;4964278;28;99226;-74
2023/12/17 01:15:10;;;;;;;10.00;3.92;;;;;;;;;;4965935;28;99428;-73
2023/12/17 01:17:37;;;;;;;8.02;4.60;;;;;;;;;;4965801;28;100124;-73
2023/12/17 01:20:04;;;;;;;5.65;3.83;;;;;;;;;;4964756;28;99104;-74
2023/12/17 01:22:31;;;;;;;10.02;4.40;;;;;;;;;;4966227;28;99684;-74
2023/12/17 01:24:58;;;;;;;8.63;3.88;;;;;;;;;;4965550;28;98685;-74
2023/12/17 01:27:24;;;;;;;6.20;3.90;;;;;;;;;;4967205;28;99072;-74
2023/12/17 01:29:51;;;;;;;6.05;3.80;;;;;;;;;;4964813;28;101016;-74
2023/12/17 01:32:17;;;;;;;4.20;3.50;;;;;;;;;;4965661;28;98411;-73
2023/12/17 01:34:44;;;;;;;7.47;4.28;;;;;;;;;;4965678;28;99220;-73
2023/12/17 01:37:10;;;;;;;6.13;4.22;;;;;;;;;;4966463;28;99284;-74
2023/12/17 01:39:37;;;;;;;8.75;5.43;;;;;;;;;;4965655;28;99712;-73
2023/12/17 01:42:03;;;;;;;6.80;3.90;;;;;;;;;;4970276;28;99512;-74
2023/12/17 01:44:30;;;;;;;9.20;4.00;;;;;;;;;;4970061;28;98781;-74
2023/12/17 01:46:56;;;;;;;8.05;4.07;;;;;;;;;;4971043;28;99856;-73
2023/12/17 01:49:23;;;;;;;9.80;4.35;;;;;;;;;;4967945;28;99488;-73
2023/12/17 01:51:50;;;;;;;5.82;4.75;;;;;;;;;;4965352;28;99197;-73
2023/12/17 01:54:17;;;;;;;7.50;4.03;;;;;;;;;;4972304;28;99635;-73
2023/12/17 01:56:43;;;;;;;7.40;3.58;;;;;;;;;;4967351;28;100012;-73
2023/12/17 01:59:10;;;;;;;9.77;4.68;;;;;;;;;;4964660;28;99602;-73
2023/12/17 02:01:38;;;;;;;4.22;3.80;;;;;;;;;;4963304;28;99772;-75
2023/12/17 02:04:05;;;;;;;4.95;4.38;;;;;;;;;;4967101;28;100910;-72
2023/12/17 02:06:31;;;;;;;3.92;3.65;;;;;;;;;;4967690;28;99119;-72
2023/12/17 02:08:58;;;;;;;6.95;3.80;;;;;;;;;;4973762;28;101422;-73
2023/12/17 02:11:24;;;;;;;4.60;3.50;;;;;;;;;;4966058;28;98431;-73
2023/12/17 02:13:51;;;;;;;5.65;3.65;;;;;;;;;;4965720;28;99692;-72
2023/12/17 02:16:17;;;;;;;6.05;4.10;;;;;;;;;;4962862;28;99769;-73
2023/12/17 02:18:44;;;;;;;8.30;3.72;;;;;;;;;;4966242;28;99386;-74
2023/12/17 02:21:12;;;;;;;4.18;3.30;;;;;;;;;;4967830;28;99806;-73
2023/12/17 02:23:38;;;;;;;8.70;4.45;;;;;;;;;;4964938;28;99447;-73
2023/12/17 02:26:05;;;;;;;8.18;4.57;;;;;;;;;;4966283;28;99427;-74
2023/12/17 02:28:31;;;;;;;7.60;3.72;;;;;;;;;;4970473;28;100101;-74
2023/12/17 02:30:58;;;;;;;6.47;3.92;;;;;;;;;;4968485;28;100232;-73
2023/12/17 02:33:24;;;;;;;5.32;3.47;;;;;;;;;;4968379;28;99437;-74
2023/12/17 02:35:51;;;;;;;5.93;3.80;;;;;;;;;;4975238;28;100143;-74
2023/12/17 02:38:18;;;;;;;5.20;3.30;;;;;;;;;;4968211;28;99816;-73
2023/12/17 02:40:45;;;;;;;6.63;3.15;;;;;;;;;;4972718;28;100204;-74
2023/12/17 02:43:11;;;;;;;6.97;3.60;;;;;;;;;;4969132;28;99202;-74
2023/12/17 02:45:38;;;;;;;5.63;3.35;;;;;;;;;;4968598;28;98666;-73
2023/12/17 02:48:04;;;;;;;5.72;3.85;;;;;;;;;;4969013;28;99965;-73
2023/12/17 02:50:30;;;;;;;4.15;3.50;;;;;;;;;;4969777;28;99297;-72
2023/12/17 02:52:57;;;;;;;6.60;3.53;;;;;;;;;;4965750;28;99728;-73
2023/12/17 02:55:23;;;;;;;3.90;3.60;;;;;;;;;;4964239;28;99961;-73
2023/12/17 02:57:50;;;;;;;8.48;4.05;;;;;;;;;;4965479;28;99880;-73
2023/12/17 03:00:16;;;;;;;7.43;3.78;;;;;;;;;;4965364;28;99854;-73
2023/12/17 03:02:43;;;;;;;8.85;3.30;;;;;;;;;;4964455;28;101136;-72
2023/12/17 03:05:10;;;;;;;4.07;3.58;;;;;;;;;;4963185;28;99520;-74
2023/12/17 03:07:36;;;;;;;4.22;2.90;;;;;;;;;;4964151;28;99342;-73
2023/12/17 03:10:03;;;;;;;3.25;2.92;;;;;;;;;;4963788;28;100137;-73
2023/12/17 03:12:30;;;;;;;4.35;2.75;;;;;;;;;;4959517;28;99683;-73
2023/12/17 03:14:56;;;;;;;6.57;3.88;;;;;;;;;;4963933;28;99649;-74
2023/12/17 03:17:23;;;;;;;3.33;3.10;;;;;;;;;;4968216;28;99106;-74
2023/12/17 03:19:50;;;;;;;3.28;2.97;;;;;;;;;;4962355;28;99892;-73
2023/12/17 03:22:17;;;;;;;8.13;3.03;;;;;;;;;;4963482;28;99914;-74
2023/12/17 03:24:43;;;;;;;4.85;2.70;;;;;;;;;;4965815;28;99668;-73
2023/12/17 03:27:10;;;;;;;3.08;2.83;;;;;;;;;;4964599;28;100005;-72
2023/12/17 03:29:36;;;;;;;5.35;2.92;;;;;;;;;;4968905;28;100188;-73
2023/12/17 03:32:03;;;;;;;3.22;2.50;;;;;;;;;;4963917;28;99814;-73
2023/12/17 03:34:29;;;;;;;5.68;2.78;;;;;;;;;;4964490;28;99865;-74
2023/12/17 03:36:56;;;;;;;5.32;2.15;;;;;;;;;;4969696;28;99905;-74
2023/12/17 03:39:22;;;;;;;8.02;2.40;;;;;;;;;;4963086;28;99903;-74
2023/12/17 03:41:49;;;;;;;5.88;2.70;;;;;;;;;;4962102;28;99661;-73
2023/12/17 03:44:15;;;;;;;7.75;2.78;;;;;;;;;;4960856;28;99707;-73
2023/12/17 03:46:42;;;;;;;4.68;3.20;;;;;;;;;;4964398;28;99245;-73
2023/12/17 03:49:08;;;;;;;6.35;3.10;;;;;;;;;;4960867;28;99206;-73
2023/12/17 03:51:35;;;;;;;7.35;2.95;;;;;;;;;;4964364;28;98866;-73
2023/12/17 03:54:01;;;;;;;9.68;2.78;;;;;;;;;;4963195;28;99390;-72
2023/12/17 03:56:28;;;;;;;8.32;3.78;;;;;;;;;;4964541;28;100030;-73
2023/12/17 03:58:54;;;;;;;10.93;4.05;;;;;;;;;;4962368;28;99488;-74
2023/12/17 04:01:21;;;;;;;3.28;3.10;;;;;;;;;;4960198;28;99680;-73
2023/12/17 04:03:47;;;;;;;5.07;3.67;;;;;;;;;;4961391;28;98667;-74
2023/12/17 04:06:14;;;;;;;8.02;3.53;;;;;;;;;;4960110;28;99915;-74
2023/12/17 04:08:40;;;;;;;7.20;3.63;;;;;;;;;;4961481;28;98953;-74
2023/12/17 04:11:07;;;;;;;10.45;3.85;;;;;;;;;;4964183;28;99743;-73
2023/12/17 04:13:33;;;;;;;6.53;3.40;;;;;;;;;;4960590;28;99587;-72
2023/12/17 04:16:00;;;;;;;7.55;3.60;;;;;;;;;;4962191;28;99463;-74
2023/12/17 04:18:26;;;;;;;11.27;3.97;;;;;;;;;;4968899;28;98971;-74
2023/12/17 04:20:53;;;;;;;11.77;3.78;;;;;;;;;;4962406;28;99922;-74
2023/12/17 04:23:19;;;;;;;14.52;3.92;;;;;;;;;;4965075;28;99101;-73
2023/12/17 04:25:45;;;;;;;4.13;3.33;;;;;;;;;;4961783;28;99568;-74
2023/12/17 04:28:12;;;;;;;11.35;4.43;;;;;;;;;;4965610;28;103303;-73
2023/12/17 04:30:38;;;;;;;10.82;4.30;;;;;;;;;;4963171;28;99541;-74
2023/12/17 04:33:05;;;;;;;11.52;5.32;;;;;;;;;;4967252;28;99384;-73
2023/12/17 04:35:32;;;;;;;6.22;5.07;;;;;;;;;;4960466;28;99298;-74
2023/12/17 04:37:58;;;;;;;11.82;4.80;;;;;;;;;;4964247;28;99939;-74
2023/12/17 04:40:25;;;;;;;7.22;4.03;;;;;;;;;;4967275;28;99404;-74
2023/12/17 04:42:51;;;;;;;5.78;4.00;;;;;;;;;;4968885;28;99798;-74
2023/12/17 04:45:19;;;;;;;5.65;4.07;;;;;;;;;;4970873;28;100764;-73
2023/12/17 04:47:45;;;;;;;8.32;4.55;;;;;;;;;;4966035;28;100136;-75
2023/12/17 04:50:12;;;;;;;7.97;5.00;;;;;;;;;;4960892;28;99831;-72
2023/12/17 04:52:38;;;;;;;9.23;4.88;;;;;;;;;;4963337;28;101273;-74
2023/12/17 04:55:05;;;;;;;12.60;4.90;;;;;;;;;;4972791;28;100176;-73
2023/12/17 04:57:32;;;;;;;6.65;4.65;;;;;;;;;;4966719;28;98320;-73
2023/12/17 05:00:00;;;;;;;8.23;4.82;;;;;;;;;;4969101;28;99107;-73
2023/12/17 05:02:27;;;;;;;3.78;3.40;;;;;;;;;;4971336;28;100011;-74
2023/12/17 05:04:54;;;;;;;6.90;3.65;;;;;;;;;;4971549;28;100042;-72
2023/12/17 05:07:20;;;;;;;6.70;3.70;;;;;;;;;;4969843;28;99035;-74
2023/12/17 05:09:47;;;;;;;8.52;4.20;;;;;;;;;;4970238;28;100131;-73
2023/12/17 05:12:14;;;;;;;9.25;4.35;;;;;;;;;;4966987;28;99444;-73
2023/12/17 05:14:40;;;;;;;5.13;4.10;;;;;;;;;;4964332;28;99934;-73
2023/12/17 05:17:07;;;;;;;6.10;4.25;;;;;;;;;;4968672;28;99340;-72
2023/12/17 05:19:33;;;;;;;8.77;4.50;;;;;;;;;;4964760;28;100072;-74
2023/12/17 05:22:02;;;;;;;5.95;3.65;;;;;;;;;;4970930;27;100089;-73
2023/12/17 05:24:28;;;;;;;7.18;4.22;;;;;;;;;;4970511;28;99320;-73
2023/12/17 05:26:55;;;;;;;8.43;4.10;;;;;;;;;;4964861;28;99981;-73
2023/12/17 05:29:21;;;;;;;6.13;4.68;;;;;;;;;;4968755;28;98395;-73
2023/12/17 05:31:47;;;;;;;12.60;3.63;;;;;;;;;;4966361;28;99789;-73
2023/12/17 05:34:14;;;;;;;9.05;3.92;;;;;;;;;;4962143;28;101264;-74
2023/12/17 05:36:42;;;;;;;11.52;3.80;;;;;;;;;;4966504;28;98241;-74
2023/12/17 05:39:08;;;;;;;4.53;2.85;;;;;;;;;;4967285;28;99722;-74
2023/12/17 05:41:35;;;;;;;8.73;3.30;;;;;;;;;;4970118;28;99916;-74
2023/12/17 05:44:01;;;;;;;5.50;2.50;;;;;;;;;;4969265;28;100056;-73
2023/12/17 05:46:27;;;;;;;3.90;3.40;;;;;;;;;;4970503;28;99821;-73
2023/12/17 05:48:54;;;;;;;8.82;3.20;;;;;;;;;;4966335;28;99384;-73
2023/12/17 05:51:20;;;;;;;7.88;2.88;;;;;;;;;;4965658;28;100000;-74
2023/12/17 05:53:47;;;;;;;8.05;3.90;;;;;;;;;;4968321;28;100351;-74
2023/12/17 05:56:14;;;;;;;16.70;3.60;;;;;;;;;;4965990;28;99052;-74
2023/12/17 05:58:41;;;;;;;9.13;3.58;;;;;;;;;;4967050;28;99802;-73
2023/12/17 06:01:08;;;;;;;6.50;3.17;;;;;;;;;;4970157;28;100046;-73
2023/12/17 06:03:37;;;;;;;4.72;3.08;;;;;;;;;;4965254;28;99493;-73
2023/12/17 06:06:05;;;;;;;9.07;3.72;;;;;;;;;;4974441;28;99873;-73
2023/12/17 06:08:32;;;;;;;5.88;3.80;;;;;;;;;;4965217;28;99360;-73
2023/12/17 06:10:58;;;;;;;13.57;4.38;;;;;;;;;;4970176;28;100188;-73
2023/12/17 06:13:25;;;;;;;9.13;4.32;;;;;;;;;;4967562;28;100106;-73
2023/12/17 06:15:51;;;;;;;8.80;3.97;;;;;;;;;;4966070;28;99884;-74
2023/12/17 06:18:17;;;;;;;13.10;4.07;;;;;;;;;;4964666;28;99877;-74
2023/12/17 06:20:44;;;;;;;5.75;3.97;;;;;;;;;;4966767;28;101735;-73
2023/12/17 06:23:11;;;;;;;12.88;4.13;;;;;;;;;;4967532;28;98964;-73
2023/12/17 06:25:37;;;;;;;10.95;4.82;;;;;;;;;;4967154;28;100058;-72
2023/12/17 06:28:04;;;;;;;7.38;4.38;;;;;;;;;;4970440;28;100292;-74
2023/12/17 06:30:32;;;;;;;11.35;4.50;;;;;;;;;;4970506;28;99259;-74
2023/12/17 06:32:59;;;;;;;6.43;4.18;;;;;;;;;;4972793;28;99970;-73
2023/12/17 06:35:26;;;;;;;16.08;5.22;;;;;;;;;;4965733;28;99355;-73
2023/12/17 06:37:52;;;;;;;7.43;4.93;;;;;;;;;;4967481;28;99688;-73
2023/12/17 06:40:19;;;;;;;11.60;4.68;;;;;;;;;;4963338;28;100244;-74
2023/12/17 06:42:45;;;;;;;6.53;5.50;;;;;;;;;;4968568;28;100059;-74
2023/12/17 06:45:12;;;;;;;13.15;8.13;;;;;;;;;;4968083;28;99435;-73
2023/12/17 06:47:38;;;;;;;12.48;8.45;;;;;;;;;;4966405;27;99415;-73
2023/12/17 06:50:05;;;;;;;16.15;6.97;;;;;;;;;;4967861;28;99590;-73
2023/12/17 06:52:32;;;;;;;17.83;9.80;;;;;;;;;;4967663;28;99260;-73
2023/12/17 06:54:58;;;;;;;18.83;11.65;;;;;;;;;;4972349;28;100253;-74
2023/12/17 06:57:25;;;;;;;18.95;10.25;;;;;;;;;;4971389;28;99720;-73
2023/12/17 06:59:51;;;;;;;18.20;11.27;;;;;;;;;;4962302;28;100045;-74
2023/12/17 07:02:18;;;;;;;26.05;12.40;;;;;;;;;;4970366;28;98211;-73
2023/12/17 07:04:44;;;;;;;24.23;12.90;;;;;;;;;;4970417;28;99764;-74
2023/12/17 07:07:11;;;;;;;22.75;13.10;;;;;;;;;;4961547;28;99965;-73
2023/12/17 07:09:37;;;;;;;17.60;12.48;;;;;;;;;;4965584;28;98259;-73
2023/12/17 07:12:04;;;;;;;23.25;14.00;;;;;;;;;;4971961;28;99612;-74
2023/12/17 07:14:30;;;;;;;12.02;8.48;;;;;;;;;;4971029;28;99933;-73
2023/12/17 07:16:57;;;;;;;18.52;10.77;;;;;;;;;;4971447;28;98715;-74
2023/12/17 07:19:25;;;;;;;26.77;15.05;;;;;;;;;;4973857;28;99124;-74
2023/12/17 07:21:52;;;;;;;25.05;13.90;;;;;;;;;;4960151;28;98404;-73
2023/12/17 07:24:18;;;;;;;23.92;14.80;;;;;;;;;;4961726;28;99428;-74
2023/12/17 07:26:45;;;;;;;21.25;11.52;;;;;;;;;;4971245;28;100207;-75
2023/12/17 07:29:13;;;;;;;26.67;14.05;;;;;;;;;;4968499;28;98603;-74
2023/12/17 07:31:39;;;;;;;20.52;12.88;;;;;;;;;;4968681;28;99358;-73
2023/12/17 07:34:06;;;;;;;23.08;14.43;;;;;;;;;;4971412;28;99881;-74
2023/12/17 07:36:32;;;;;;;17.13;13.20;;;;;;;;;;4969808;28;98945;-74
2023/12/17 07:38:59;;;;;;;22.33;12.80;;;;;;;;;;4969027;28;100068;-74
2023/12/17 07:41:25;;;;;;;26.98;14.25;;;;;;;;;;4967021;28;98513;-75
2023/12/17 07:43:52;;;;;;;23.33;13.13;;;;;;;;;;4968798;28;99565;-73
2023/12/17 07:46:18;;;;;;;22.63;12.63;;;;;;;;;;4968643;28;99967;-75
2023/12/17 07:48:45;;;;;;;18.23;11.45;;;;;;;;;;4968001;28;98315;-74
2023/12/17 07:51:12;;;;;;;19.60;12.48;;;;;;;;;;4968189;28;99359;-75
2023/12/17 07:53:38;;;;;;;20.23;12.35;;;;;;;;;;4962488;28;99907;-74
2023/12/17 07:56:07;;;;;;;15.68;10.38;;;;;;;;;;4970397;28;98277;-73
2023/12/17 07:58:33;;;;;;;16.25;9.43;;;;;;;;;;4968286;28;100004;-74
2023/12/17 08:01:00;;;;;;;14.13;9.95;;;;;;;;;;4968237;28;98244;-73
2023/12/17 08:03:26;;;;;;;12.48;9.73;;;;;;;;;;4968086;28;99631;-74
2023/12/17 08:05:53;;;;;;;12.85;9.27;;;;;;;;;;4967124;28;98991;-74
2023/12/17 08:08:20;;;;;;;18.33;10.38;;;;;;;;;;4969251;28;98241;-76
2023/12/17 08:10:46;;;;;;;15.38;9.50;;;;;;;;;;4968943;28;98487;-74
2023/12/17 08:13:14;;;;;;;12.57;9.35;;;;;;;;;;4961888;28;99949;-74
2023/12/17 08:15:42;;;;;;;13.80;10.18;;;;;;;;;;4971323;28;98198;-74
2023/12/17 08:18:09;;;;;;;15.35;9.13;;;;;;;;;;4956982;28;99990;-74
2023/12/17 08:20:35;;;;;;;12.95;9.05;;;;;;;;;;4971971;28;98116;-74
2023/12/17 08:23:02;;;;;;;12.43;9.20;;;;;;;;;;4970659;28;99383;-74
2023/12/17 08:25:30;;;;;;;14.10;8.57;;;;;;;;;;4964318;28;99780;-74
2023/12/17 08:27:58;;;;;;;9.63;8.65;;;;;;;;;;4971793;28;98258;-75
2023/12/17 08:30:24;;;;;;;10.27;8.60;;;;;;;;;;4953872;28;100132;-74
2023/12/17 08:32:51;;;;;;;9.07;5.63;;;;;;;;;;4971309;28;99908;-75
2023/12/17 08:35:19;;;;;;;9.75;8.40;;;;;;;;;;4970986;28;98184;-74
2023/12/17 08:37:45;;;;;;;13.55;8.80;;;;;;;;;;4973733;28;100034;-73
2023/12/17 08:40:11;;;;;;;17.05;9.60;;;;;;;;;;4963155;28;98322;-73
2023/12/17 08:42:38;;;;;;;17.90;9.70;;;;;;;;;;4955205;28;99411;-75
2023/12/17 08:45:04;;;;;;;13.43;9.07;;;;;;;;;;4959086;28;100166;-73
2023/12/17 08:47:32;;;;;;;16.38;9.70;;;;;;;;;;4967262;28;98419;-74
2023/12/17 08:50:01;;;;;;;12.18;10.93;;;;;;;;;;4967278;28;99442;-73
2023/12/17 08:52:27;;;;;;;13.07;11.63;;;;;;;;;;4960401;28;100541;-74
2023/12/17 08:54:54;;;;;;;14.63;11.55;;;;;;;;;;4970672;28;98242;-75
2023/12/17 08:57:20;;;;;;;19.30;12.95;;;;;;;;;;4963222;28;99652;-75
2023/12/17 08:59:47;;;;;;;18.80;12.63;;;;;;;;;;4972680;28;100426;-75
2023/12/17 09:02:13;;;;;;;18.88;12.45;;;;;;;;;;4957109;28;99476;-74
2023/12/17 09:04:39;;;;;;;18.52;12.80;;;;;;;;;;4964444;28;99879;-73
2023/12/17 09:07:06;;;;;;;21.80;13.32;;;;;;;;;;4966668;28;98819;-74
2023/12/17 09:09:32;;;;;;;17.83;12.27;;;;;;;;;;4967902;28;98462;-75
2023/12/17 09:11:59;;;;;;;20.08;12.60;;;;;;;;;;4962734;28;98941;-74
2023/12/17 09:14:25;;;;;;;22.95;14.70;;;;;;;;;;4971052;28;98218;-76
2023/12/17 09:16:52;;;;;;;27.58;16.05;;;;;;;;;;4971066;28;99628;-73
2023/12/17 09:19:18;;;;;;;18.48;12.80;;;;;;;;;;4956058;28;99954;-75
2023/12/17 09:21:45;;;;;;;24.42;14.63;;;;;;;;;;4969179;28;98641;-75
2023/12/17 09:24:11;;;;;;;24.50;15.57;;;;;;;;;;4957579;28;99859;-75
2023/12/17 09:26:38;;;;;;;29.35;16.20;;;;;;;;;;4952081;28;98268;-75
2023/12/17 09:29:04;;;;;;;23.40;13.95;;;;;;;;;;4960251;28;99604;-76
2023/12/17 09:31:31;;;;;;;27.60;15.38;;;;;;;;;;4963300;28;98984;-74
2023/12/17 09:33:57;;;;;;;21.20;14.93;;;;;;;;;;4953926;28;98636;-75
2023/12/17 09:36:26;;;;;;;21.75;14.40;;;;;;;;;;4971095;28;99785;-75
2023/12/17 09:38:53;;;;;;;19.98;13.00;;;;;;;;;;4970549;28;100038;-75
2023/12/17 09:41:19;;;;;;;20.83;13.85;;;;;;;;;;4969984;28;98312;-74
2023/12/17 09:43:46;;;;;;;21.98;14.77;;;;;;;;;;4973030;28;99279;-75
2023/12/17 09:46:13;;;;;;;22.02;14.25;;;;;;;;;;4970140;28;98186;-75
2023/12/17 09:48:39;;;;;;;24.50;14.80;;;;;;;;;;4962737;28;99420;-73
2023/12/17 09:51:10;;;;;;;23.65;15.15;;;;;;;;;;4961634;28;100145;-75
2023/12/17 09:53:37;;;;;;;27.38;14.15;;;;;;;;;;4970608;28;98270;-74
2023/12/17 09:56:04;;;;;;;22.90;14.75;;;;;;;;;;4969685;28;99696;-75
2023/12/17 09:58:30;;;;;;;21.05;14.80;;;;;;;;;;4961855;28;99216;-74
2023/12/17 10:00:57;;;;;;;24.27;15.27;;;;;;;;;;4951401;28;98368;-75
2023/12/17 10:03:24;;;;;;;23.60;15.15;;;;;;;;;;4950276;28;99835;-75
2023/12/17 10:05:51;;;;;;;26.40;15.70;;;;;;;;;;4953758;28;98808;-75
2023/12/17 10:08:18;;;;;;;27.05;16.13;;;;;;;;;;4949304;28;99658;-74
2023/12/17 10:10:45;;;;;;;20.30;11.73;;;;;;;;;;4958732;28;100313;-76
2023/12/17 10:13:18;;;;;;;20.83;13.32;;;;;;;;;;4963543;28;98372;-74
2023/12/17 10:15:49;;;;;;;19.70;12.35;;;;;;;;;;4964188;28;99687;-75
2023/12/17 10:18:16;;;;;;;18.08;12.77;;;;;;;;;;4958383;28;100083;-74
2023/12/17 10:20:46;;;;;;;18.60;11.70;;;;;;;;;;4957506;28;99024;-74
2023/12/17 10:23:13;;;;;;;18.20;12.60;;;;;;;;;;4957673;28;99742;-72
2023/12/17 10:25:39;;;;;;;15.23;11.85;;;;;;;;;;4962753;28;99956;-72
2023/12/17 10:28:08;;;;;;;18.33;12.80;;;;;;;;;;4964944;28;98680;-74
2023/12/17 10:30:35;;;;;;;18.60;13.70;;;;;;;;;;4951879;28;99859;-74
2023/12/17 10:33:02;;;;;;;20.15;13.10;;;;;;;;;;4964126;28;99421;-72
2023/12/17 10:35:32;;;;;;;16.85;12.35;;;;;;;;;;4966429;28;99455;-74
2023/12/17 10:38:03;;;;;;;21.85;12.68;;;;;;;;;;4953952;28;100332;-74
2023/12/17 10:40:30;;;;;;;19.15;13.18;;;;;;;;;;4974248;28;98211;-73
2023/12/17 10:42:58;;;;;;;21.92;13.80;;;;;;;;;;4969665;28;99459;-72
2023/12/17 10:45:25;;;;;;;20.15;13.10;;;;;;;;;;4957713;28;99945;-72
2023/12/17 10:47:52;;;;;;;18.17;12.77;;;;;;;;;;4964370;28;98438;-73
2023/12/17 10:50:19;;;;;;;21.27;14.75;;;;;;;;;;4956296;28;99572;-73
2023/12/17 10:52:47;;;;;;;27.25;15.73;;;;;;;;;;4961379;28;99952;-72
2023/12/17 10:55:14;;;;;;;23.15;14.70;;;;;;;;;;4966283;28;99395;-71
2023/12/17 10:57:44;;;;;;;21.42;15.02;;;;;;;;;;4958281;28;99949;-71
2023/12/17 11:00:11;;;;;;;22.98;14.88;;;;;;;;;;4959112;28;99560;-73
2023/12/17 11:02:37;;;;;;;23.30;15.27;;;;;;;;;;4968199;28;99456;-72
2023/12/17 11:05:04;;;;;;;23.10;14.75;;;;;;;;;;4960094;28;99002;-71
2023/12/17 11:07:31;;;;;;;26.33;15.73;;;;;;;;;;4969676;28;98231;-71
2023/12/17 11:10:09;;;;;;;19.40;12.48;;;;;;;;;;4957669;28;99481;-75
2023/12/17 11:12:35;;;;;;;25.27;17.03;;;;;;;;;;4954395;28;99997;-73
2023/12/17 11:15:02;;;;;;;23.30;14.88;;;;;;;;;;4961637;28;99714;-73
2023/12/17 11:17:29;;;;;;;27.35;15.93;;;;;;;;;;4960886;28;99752;-72
2023/12/17 11:20:00;;;;;;;23.05;15.30;;;;;;;;;;4953460;28;98782;-72
2023/12/17 11:22:27;;;;;;;25.73;16.15;;;;;;;;;;4956919;28;99722;-72
2023/12/17 11:24:55;;;;;;;24.90;16.58;;;;;;;;;;4957257;28;100129;-71
2023/12/17 11:27:22;;;;;;;22.30;16.35;;;;;;;;;;4955822;28;99184;-71
2023/12/17 11:29:50;;;;;;;24.00;16.25;;;;;;;;;;4960322;28;101485;-71
2023/12/17 11:32:20;;;;;;;25.88;16.70;;;;;;;;;;4960199;28;100078;-72
2023/12/17 11:34:48;;;;;;;20.02;15.20;;;;;;;;;;4957321;28;99660;-72
2023/12/17 11:37:19;;;;;;;25.48;15.80;;;;;;;;;;4954503;28;99949;-71
2023/12/17 11:39:46;;;;;;;26.38;16.10;;;;;;;;;;4962611;28;99742;-72
2023/12/17 11:42:14;;;;;;;21.15;16.38;;;;;;;;;;4960002;28;99618;-69
2023/12/17 11:44:43;;;;;;;30.33;15.43;;;;;;;;;;4964689;28;100126;-74
2023/12/17 11:47:11;;;;;;;17.58;11.88;;;;;;;;;;4967004;28;98246;-73
2023/12/17 11:49:38;;;;;;;23.52;14.02;;;;;;;;;;4969146;28;99615;-75
2023/12/17 11:52:11;;;;;;;19.67;12.48;;;;;;;;;;4966113;28;99249;-75
2023/12/17 11:54:37;;;;;;;24.55;13.27;;;;;;;;;;4964997;27;98251;-75
2023/12/17 11:57:16;;;;;;;26.15;12.38;;;;;;;;;;4953335;28;100201;-74
2023/12/17 11:59:43;;;;;;;21.63;13.32;;;;;;;;;;4962735;28;98759;-74
2023/12/17 12:02:09;;;;;;;25.05;12.95;;;;;;;;;;4967895;28;99608;-74
2023/12/17 12:04:39;;;;;;;24.45;14.65;;;;;;;;;;4968739;28;100235;-73
2023/12/17 12:07:06;;;;;;;23.00;12.65;;;;;;;;;;4963376;28;98339;-74
2023/12/17 12:09:33;;;;;;;22.70;12.43;;;;;;;;;;4967725;28;99307;-73
2023/12/17 12:12:00;;;;;;;21.92;12.05;;;;;;;;;;4967798;28;99226;-73
2023/12/17 12:14:26;;;;;;;23.20;11.88;;;;;;;;;;4971747;28;98263;-74
2023/12/17 12:16:54;;;;;;;19.98;11.80;;;;;;;;;;4967603;28;99957;-73
2023/12/17 12:19:21;;;;;;;17.45;10.85;;;;;;;;;;4968512;28;98056;-73
2023/12/17 12:21:55;;;;;;;20.90;11.52;;;;;;;;;;4964609;28;99518;-73
2023/12/17 12:24:21;;;;;;;17.42;9.68;;;;;;;;;;4965186;28;99380;-73
2023/12/17 12:26:49;;;;;;;18.77;9.75;;;;;;;;;;4960915;28;98214;-73
2023/12/17 12:29:16;;;;;;;13.30;9.57;;;;;;;;;;4967889;28;99761;-74
2023/12/17 12:31:52;;;;;;;18.52;9.85;;;;;;;;;;4967944;28;100056;-72
2023/12/17 12:34:19;;;;;;;23.95;10.73;;;;;;;;;;4968325;28;98589;-72
2023/12/17 12:36:49;;;;;;;16.92;10.52;;;;;;;;;;4969850;28;99301;-73
2023/12/17 12:39:17;;;;;;;18.63;10.43;;;;;;;;;;4963227;28;98686;-73
2023/12/17 12:41:45;;;;;;;18.38;10.75;;;;;;;;;;4968187;28;98628;-73
2023/12/17 12:44:16;;;;;;;16.48;9.30;;;;;;;;;;4967194;28;98330;-73
2023/12/17 12:46:46;;;;;;;24.53;9.13;;;;;;;;;;4964051;28;98271;-72
2023/12/17 12:49:12;;;;;;;22.45;9.85;;;;;;;;;;4948432;28;99603;-73
2023/12/17 12:51:39;;;;;;;18.40;8.93;;;;;;;;;;4947821;28;99766;-73
2023/12/17 12:54:06;;;;;;;22.13;9.27;;;;;;;;;;4962448;28;99510;-73
2023/12/17 12:56:35;;;;;;;17.10;8.52;;;;;;;;;;4968338;28;99561;-73
2023/12/17 12:59:01;;;;;;;14.05;6.82;;;;;;;;;;4970406;28;100117;-73
2023/12/17 13:01:28;;;;;;;15.30;6.93;;;;;;;;;;4959550;28;98711;-73
2023/12/17 13:03:55;;;;;;;11.68;6.03;;;;;;;;;;4967306;28;98788;-73
2023/12/17 13:06:23;;;;;;;19.67;8.68;;;;;;;;;;4971777;28;98267;-72
2023/12/17 13:08:50;;;;;;;19.75;6.65;;;;;;;;;;4969653;28;99311;-73
2023/12/17 13:11:17;;;;;;;14.13;6.18;;;;;;;;;;4961940;28;101015;-73
2023/12/17 13:13:44;;;;;;;15.35;7.03;;;;;;;;;;4962981;28;99034;-72
2023/12/17 13:16:10;;;;;;;18.65;5.93;;;;;;;;;;4962770;28;99532;-74
2023/12/17 13:18:36;;;;;;;15.07;5.53;;;;;;;;;;4970190;28;99985;-73
2023/12/17 13:21:03;;;;;;;19.02;6.35;;;;;;;;;;4965963;28;99080;-75
2023/12/17 13:23:30;;;;;;;18.08;5.68;;;;;;;;;;4958736;28;100546;-72
2023/12/17 13:25:57;;;;;;;16.88;6.15;;;;;;;;;;4966561;28;98728;-73
2023/12/17 13:28:36;;;;;;;21.85;6.00;;;;;;;;;;4958046;28;99598;-73
2023/12/17 13:31:03;;;;;;;15.27;5.70;;;;;;;;;;4970813;28;99222;-73
2023/12/17 13:33:30;;;;;;;12.55;5.32;;;;;;;;;;4970281;28;98252;-73
2023/12/17 13:35:57;;;;;;;13.30;5.10;;;;;;;;;;4970788;28;99422;-73
2023/12/17 13:38:24;;;;;;;12.93;4.78;;;;;;;;;;4959170;28;100124;-73
2023/12/17 13:40:50;;;;;;;16.83;5.10;;;;;;;;;;4957774;28;98705;-73
2023/12/17 13:43:17;;;;;;;13.23;6.10;;;;;;;;;;4965559;28;99397;-72
2023/12/17 13:45:44;;;;;;;13.85;4.95;;;;;;;;;;4965170;28;98296;-72
2023/12/17 13:48:13;;;;;;;11.50;4.70;;;;;;;;;;4967654;28;99335;-73
2023/12/17 13:50:41;;;;;;;22.70;5.35;;;;;;;;;;4965776;28;100389;-73
2023/12/17 13:53:08;;;;;;;15.45;5.45;;;;;;;;;;4960104;28;98267;-72
2023/12/17 13:55:35;;;;;;;14.13;5.07;;;;;;;;;;4961178;28;100985;-72
2023/12/17 13:58:01;;;;;;;12.48;4.55;;;;;;;;;;4962918;28;99022;-72
2023/12/17 14:00:28;;;;;;;15.27;5.13;;;;;;;;;;4960790;28;98810;-72
2023/12/17 14:02:56;;;;;;;14.70;4.82;;;;;;;;;;4966237;28;100232;-75
2023/12/17 14:05:28;;;;;;;14.90;5.15;;;;;;;;;;4964553;28;99811;-75
2023/12/17 14:07:56;;;;;;;16.95;5.18;;;;;;;;;;4970038;28;99470;-75
2023/12/17 14:10:23;;;;;;;10.57;4.43;;;;;;;;;;4969422;28;99820;-74
2023/12/17 14:12:50;;;;;;;17.52;4.97;;;;;;;;;;4969932;28;98282;-74
2023/12/17 14:15:16;;;;;;;12.50;4.22;;;;;;;;;;4960621;28;98519;-74
2023/12/17 14:17:43;;;;;;;11.50;4.25;;;;;;;;;;4953736;28;100158;-74
2023/12/17 14:20:10;;;;;;;15.00;6.22;;;;;;;;;;4969505;28;98908;-75
2023/12/17 14:22:48;;;;;;;10.02;3.78;;;;;;;;;;4962084;28;99573;-75
2023/12/17 14:25:14;;;;;;;12.27;4.45;;;;;;;;;;4965585;28;99263;-74
2023/12/17 14:27:42;;;;;;;14.23;4.65;;;;;;;;;;4950592;28;99604;-74